createdAt,value
2019-01-15T00:00:54.339Z,98234.45
2019-01-15T00:04:59.025Z,98232.78
2019-01-15T00:09:05.479Z,98228.52
2019-01-15T00:13:10.168Z,98236.34
2019-01-15T00:17:14.847Z,98237.19
2019-01-15T00:21:19.533Z,98241.07
2019-01-15T00:25:24.216Z,98248.37
2019-01-15T00:29:28.911Z,98252.26
2019-01-15T00:33:33.595Z,98246.63
2019-01-15T00:37:38.264Z,98251.80
2019-01-15T00:41:42.950Z,98260.42
2019-01-15T00:45:47.634Z,98266.45
2019-01-15T00:49:52.325Z,98271.66
2019-01-15T00:53:57.012Z,98290.18
2019-01-15T00:58:01.683Z,98279.44
2019-01-15T01:02:06.368Z,98286.32
2019-01-15T01:06:11.051Z,98291.08
2019-01-15T01:10:16.302Z,98284.66
2019-01-15T01:14:20.985Z,98290.28
2019-01-15T01:18:25.659Z,98298.89
2019-01-15T01:22:30.350Z,98300.61
2019-01-15T01:26:35.038Z,98301.05
2019-01-15T01:30:39.726Z,98302.35
2019-01-15T01:34:44.409Z,98307.52
2019-01-15T01:38:49.083Z,98306.66
2019-01-15T01:42:53.772Z,98305.34
2019-01-15T01:46:58.458Z,98309.22
2019-01-15T01:51:03.139Z,98314.83
2019-01-15T01:55:09.957Z,98314.80
2019-01-15T01:59:14.647Z,98312.23
2019-01-15T02:03:19.407Z,98319.53
2019-01-15T02:07:24.101Z,98321.69
2019-01-15T02:11:28.783Z,98325.56
2019-01-15T02:15:33.460Z,98322.97
2019-01-15T02:19:38.155Z,98319.09
2019-01-15T02:23:42.837Z,98308.30
2019-01-15T02:27:49.172Z,98316.50
2019-01-15T02:31:53.859Z,98311.73
2019-01-15T02:35:58.532Z,98310.40
2019-01-15T02:40:04.389Z,98308.22
2019-01-15T02:44:09.063Z,98314.69
2019-01-15T02:48:13.743Z,98319.43
2019-01-15T02:52:18.421Z,98328.03
2019-01-15T02:56:23.087Z,98335.79
2019-01-15T03:00:27.769Z,98337.94
2019-01-15T03:04:32.510Z,98333.61
2019-01-15T03:08:37.133Z,98335.77
2019-01-15T03:12:43.457Z,98331.86
2019-01-15T03:16:48.127Z,98324.97
2019-01-15T03:20:52.807Z,98324.48
2019-01-15T03:24:58.463Z,98314.54
2019-01-15T03:29:03.143Z,98306.72
2019-01-15T03:33:07.828Z,98303.23
2019-01-15T03:37:12.487Z,98296.30
2019-01-15T03:41:17.179Z,98298.89
2019-01-15T03:45:21.854Z,98313.98
2019-01-15T03:49:26.535Z,98315.28
2019-01-15T03:53:32.195Z,98291.59
2019-01-15T03:57:36.862Z,98286.91
2019-01-15T04:01:41.540Z,98272.73
2019-01-15T04:05:46.215Z,98270.58
2019-01-15T04:09:50.967Z,98275.75
2019-01-15T04:13:55.649Z,98270.58
2019-01-15T04:18:00.312Z,98274.89
2019-01-15T04:22:04.997Z,98278.77
2019-01-15T04:26:09.670Z,98265.84
2019-01-15T04:30:19.672Z,98267.53
2019-01-15T04:34:24.352Z,98266.63
2019-01-15T04:38:30.094Z,98265.38
2019-01-15T04:42:34.765Z,98258.00
2019-01-15T04:46:39.450Z,98264.91
2019-01-15T04:50:44.131Z,98262.78
2019-01-15T04:54:49.878Z,98264.51
2019-01-15T04:58:54.550Z,98261.48
2019-01-15T05:02:59.698Z,98257.58
2019-01-15T05:07:04.382Z,98262.78
2019-01-15T05:11:09.055Z,98264.51
2019-01-15T05:15:16.438Z,98252.86
2019-01-15T05:19:21.116Z,98254.16
2019-01-15T05:23:25.790Z,98258.44
2019-01-15T05:27:30.467Z,98259.77
2019-01-15T05:31:35.149Z,98263.61
2019-01-15T05:35:39.829Z,98277.38
2019-01-15T05:39:44.504Z,98268.33
2019-01-15T05:43:49.184Z,98265.27
2019-01-15T05:47:55.702Z,98266.56
2019-01-15T05:52:00.375Z,98260.06
2019-01-15T05:56:05.056Z,98262.62
2019-01-15T06:00:12.728Z,98262.19
2019-01-15T06:04:17.403Z,98258.27
2019-01-15T06:08:22.086Z,98261.25
2019-01-15T06:12:26.762Z,98244.85
2019-01-15T06:16:31.465Z,98252.19
2019-01-15T06:20:36.155Z,98259.52
2019-01-15T06:24:40.822Z,98253.05
2019-01-15T06:28:45.769Z,98255.20
2019-01-15T06:32:50.449Z,98244.77
2019-01-15T06:36:55.124Z,98239.55
2019-01-15T06:40:59.853Z,98230.96
2019-01-15T06:45:08.037Z,98234.81
2019-01-15T06:49:12.717Z,98237.44
2019-01-15T06:53:17.400Z,98243.91
2019-01-15T06:57:22.077Z,98246.11
2019-01-15T07:01:26.742Z,98247.80
2019-01-15T07:05:31.428Z,98246.59
2019-01-15T07:09:36.105Z,98247.65
2019-01-15T07:13:40.790Z,98262.44
2019-01-15T07:17:45.463Z,98259.43
2019-01-15T07:21:50.408Z,98270.16
2019-01-15T07:25:55.084Z,98270.34
2019-01-15T07:29:59.765Z,98275.64
2019-01-15T07:34:04.439Z,98275.26
2019-01-15T07:38:09.117Z,98268.83
2019-01-15T07:42:13.787Z,98264.16
2019-01-15T07:46:18.466Z,98261.13
2019-01-15T07:50:23.148Z,98253.84
2019-01-15T07:54:27.824Z,98256.78
2019-01-15T07:58:32.557Z,98257.09
2019-01-15T08:02:37.190Z,98255.74
2019-01-15T08:06:41.863Z,98252.16
2019-01-15T08:10:46.545Z,98260.17
2019-01-15T08:14:51.219Z,98268.61
2019-01-15T08:18:55.906Z,98276.27
2019-01-15T08:23:00.571Z,98286.12
2019-01-15T08:27:05.255Z,98284.27
2019-01-15T08:31:09.947Z,98260.45
2019-01-15T08:35:14.974Z,98259.59
2019-01-15T08:39:19.649Z,98279.88
2019-01-15T08:43:24.324Z,98287.61
2019-01-15T08:47:30.567Z,98286.57
2019-01-15T08:51:35.622Z,98278.54
2019-01-15T08:55:40.304Z,98278.29
2019-01-15T08:59:44.976Z,98277.16
2019-01-15T09:03:49.651Z,98278.73
2019-01-15T09:07:54.328Z,98273.48
2019-01-15T09:11:59.006Z,98286.03
2019-01-15T09:16:03.687Z,98271.37
2019-01-15T09:20:16.794Z,98275.62
2019-01-15T09:24:21.463Z,98269.02
2019-01-15T09:28:26.140Z,98263.97
2019-01-15T09:32:30.819Z,98266.66
2019-01-15T09:36:35.505Z,98254.87
2019-01-15T09:40:40.176Z,98259.30
2019-01-15T09:44:45.328Z,98259.84
2019-01-15T09:48:50.279Z,98256.88
2019-01-15T09:52:54.996Z,98252.27
2019-01-15T09:57:00.642Z,98270.97
2019-01-15T10:01:05.323Z,98263.61
2019-01-15T10:05:10.004Z,98261.85
2019-01-15T10:09:14.685Z,98255.59
2019-01-15T10:13:19.363Z,98262.48
2019-01-15T10:17:24.043Z,98251.25
2019-01-15T10:21:28.722Z,98244.08
2019-01-15T10:25:33.939Z,98235.55
2019-01-15T10:29:38.791Z,98235.65
2019-01-15T10:33:46.733Z,98230.27
2019-01-15T10:37:51.491Z,98225.69
2019-01-15T10:41:56.160Z,98228.47
2019-01-15T10:46:00.841Z,98225.09
2019-01-15T10:50:08.758Z,98225.83
2019-01-15T10:54:13.438Z,98223.23
2019-01-15T10:58:18.115Z,98216.14
2019-01-15T11:02:22.788Z,98217.61
2019-01-15T11:06:27.465Z,98223.23
2019-01-15T11:10:32.147Z,98215.00
2019-01-15T11:14:37.497Z,98227.41
2019-01-15T11:18:42.198Z,98203.34
2019-01-15T11:22:46.945Z,98194.44
2019-01-15T11:26:51.627Z,98193.48
2019-01-15T11:30:56.303Z,98194.02
2019-01-15T11:35:00.993Z,98175.12
2019-01-15T11:39:07.887Z,98168.73
2019-01-15T11:43:12.564Z,98166.97
2019-01-15T11:47:17.243Z,98155.55
2019-01-15T11:51:21.920Z,98151.44
2019-01-15T11:55:26.606Z,98153.66
2019-01-15T11:59:31.633Z,98144.38
2019-01-15T12:03:54.176Z,98159.89
2019-01-15T12:08:02.985Z,98159.64
2019-01-15T12:12:18.468Z,98142.22
2019-01-15T12:16:43.087Z,98143.63
2019-01-15T12:20:51.873Z,98136.29
2019-01-15T12:25:14.665Z,98136.94
2019-01-15T12:29:26.792Z,98133.81
2019-01-15T12:33:41.883Z,98131.67
2019-01-15T12:37:53.974Z,98131.66
2019-01-15T12:42:18.286Z,98129.35
2019-01-15T12:46:27.303Z,98131.52
2019-01-15T12:50:33.616Z,98124.81
2019-01-15T12:54:48.730Z,98119.73
2019-01-15T12:58:55.064Z,98115.47
2019-01-15T13:03:16.332Z,98115.97
2019-01-15T13:07:37.694Z,98108.24
2019-01-15T13:11:44.038Z,98107.55
2019-01-15T13:15:51.620Z,98107.45
2019-01-15T13:20:09.942Z,98106.75
2019-01-15T13:24:32.790Z,98098.88
2019-01-15T13:28:48.307Z,98083.26
2019-01-15T13:33:06.176Z,98079.18
2019-01-15T13:37:15.185Z,98079.48
2019-01-15T13:41:21.496Z,98088.59
2019-01-15T13:45:41.675Z,98082.30
2019-01-15T13:49:44.855Z,98083.69
2019-01-15T13:53:57.131Z,98083.27
2019-01-15T13:58:06.147Z,98080.83
2019-01-15T14:02:24.120Z,98080.29
2019-01-15T14:06:30.450Z,98074.05
2019-01-15T14:10:39.647Z,98071.13
2019-01-15T14:15:04.124Z,98072.75
2019-01-15T14:19:28.667Z,98079.91
2019-01-15T14:23:37.676Z,98071.83
2019-01-15T14:32:32.102Z,98060.21
2019-01-15T14:36:47.441Z,98059.47
2019-01-15T14:40:53.768Z,98057.17
2019-01-15T14:45:03.040Z,98060.69
2019-01-15T14:49:13.357Z,98059.53
2019-01-15T14:53:28.678Z,98062.31
2019-01-15T14:57:54.177Z,98054.92
2019-01-15T15:02:15.242Z,98064.50
2019-01-15T15:06:48.181Z,98064.76
2019-01-15T15:10:57.218Z,98063.63
2019-01-15T15:15:15.559Z,98068.95
2019-01-15T15:19:39.178Z,98062.38
2019-01-15T15:24:01.671Z,98076.34
2019-01-15T15:28:10.670Z,98067.88
2019-01-15T15:32:17.008Z,98072.05
2019-01-15T15:36:23.334Z,98066.06
2019-01-15T15:40:41.505Z,98065.73
2019-01-15T15:44:50.530Z,98056.95
2019-01-15T15:49:06.766Z,98063.24
2019-01-15T15:53:16.022Z,98069.00
2019-01-15T15:57:25.237Z,98071.27
2019-01-15T16:01:47.760Z,98068.09
2019-01-15T16:06:06.053Z,98068.55
2019-01-15T16:10:28.814Z,98066.45
2019-01-15T16:14:47.185Z,98069.86
2019-01-15T16:18:55.944Z,98070.94
2019-01-15T16:23:08.961Z,98069.30
2019-01-15T16:27:31.338Z,98068.03
2019-01-15T16:31:37.704Z,98072.50
2019-01-15T16:35:56.018Z,98061.88
2019-01-15T16:40:05.270Z,98067.87
2019-01-15T16:44:27.416Z,98073.66
2019-01-15T16:48:33.731Z,98072.91
2019-01-15T16:52:40.051Z,98066.06
2019-01-15T16:56:46.369Z,98082.30
2019-01-15T17:01:08.766Z,98065.07
2019-01-15T17:05:31.591Z,98069.08
2019-01-15T17:09:46.976Z,98067.99
2019-01-15T17:13:53.285Z,98062.91
2019-01-15T17:18:11.506Z,98055.63
2019-01-15T17:22:23.687Z,98056.09
2019-01-15T17:26:35.810Z,98056.63
2019-01-15T17:30:51.722Z,98061.28
2019-01-15T17:35:07.207Z,98063.86
2019-01-15T17:39:32.305Z,98061.59
2019-01-15T17:43:41.441Z,98058.47
2019-01-15T17:47:53.735Z,98067.55
2019-01-15T17:52:18.235Z,98055.89
2019-01-15T17:56:30.662Z,98058.98
2019-01-15T18:00:42.985Z,98063.36
2019-01-15T18:04:49.310Z,98060.39
2019-01-15T18:08:58.376Z,98066.04
2019-01-15T18:13:21.199Z,98066.45
2019-01-15T18:17:27.525Z,98060.42
2019-01-15T18:21:33.845Z,98070.83
2019-01-15T18:25:42.859Z,98063.02
2019-01-15T18:30:01.101Z,98075.61
2019-01-15T18:34:19.685Z,98067.97
2019-01-15T18:38:29.058Z,98067.00
2019-01-15T18:42:35.400Z,98067.89
2019-01-15T18:46:57.047Z,98067.47
2019-01-15T18:51:03.369Z,98071.38
2019-01-15T18:55:24.300Z,98064.06
2019-01-15T18:59:30.611Z,98066.25
2019-01-15T19:03:42.679Z,98071.97
2019-01-15T19:07:49.006Z,98064.69
2019-01-15T19:11:56.400Z,98068.97
2019-01-15T19:16:18.847Z,98070.81
2019-01-15T19:20:25.322Z,98070.03
2019-01-15T19:24:34.542Z,98069.33
2019-01-15T19:28:43.786Z,98070.65
2019-01-15T19:33:08.597Z,98069.78
2019-01-15T19:37:14.956Z,98065.47
2019-01-15T19:41:27.442Z,98068.58
2019-01-15T19:45:33.776Z,98066.92
2019-01-15T19:49:56.735Z,98066.94
2019-01-15T19:54:06.031Z,98064.69
2019-01-15T19:58:30.709Z,98062.43
2019-01-15T20:02:37.052Z,98057.19
2019-01-15T20:06:46.115Z,98064.13
2019-01-15T20:11:10.824Z,98066.82
2019-01-15T20:15:32.241Z,98074.18
2019-01-15T20:19:47.392Z,98072.88
2019-01-15T20:23:56.454Z,98074.52
2019-01-15T20:28:05.552Z,98073.25
2019-01-15T20:32:14.802Z,98072.39
2019-01-15T20:36:36.405Z,98064.66
2019-01-15T20:40:48.682Z,98066.84
2019-01-15T20:45:10.025Z,98066.52
2019-01-15T20:49:19.380Z,98069.22
2019-01-15T20:53:25.733Z,98073.12
2019-01-15T20:57:32.074Z,98073.19
2019-01-15T21:01:38.408Z,98072.16
2019-01-15T21:05:44.751Z,98065.20
2019-01-15T21:10:09.596Z,98064.27
2019-01-15T21:14:15.948Z,98067.38
2019-01-15T21:18:22.281Z,98062.28
2019-01-15T21:22:43.708Z,98063.06
2019-01-15T21:26:55.861Z,98061.12
2019-01-15T21:31:14.056Z,98065.01
2019-01-15T21:35:29.280Z,98061.19
2019-01-15T21:39:44.671Z,98062.00
2019-01-15T21:43:53.693Z,98053.87
2019-01-15T21:48:02.739Z,98058.36
2019-01-15T21:52:25.204Z,98053.24
2019-01-15T21:56:31.571Z,98061.07
2019-01-15T22:00:50.158Z,98056.88
2019-01-15T22:04:59.174Z,98052.61
2019-01-15T22:09:26.086Z,98057.00
2019-01-15T22:13:32.447Z,98057.37
2019-01-15T22:17:38.779Z,98058.57
2019-01-15T22:22:01.529Z,98047.73
2019-01-15T22:26:10.587Z,98048.17
2019-01-15T22:30:16.916Z,98052.56
2019-01-15T22:34:23.277Z,98052.98
2019-01-15T22:38:32.326Z,98052.13
2019-01-15T22:42:38.680Z,98036.55
2019-01-15T22:46:47.944Z,98041.33
2019-01-15T22:50:56.919Z,98031.01
2019-01-15T22:55:03.263Z,98021.36
2019-01-15T22:59:18.801Z,98018.67
2019-01-15T23:03:25.149Z,98022.14
2019-01-15T23:07:31.483Z,98009.91
2019-01-15T23:11:40.872Z,98010.85
2019-01-15T23:15:52.889Z,98008.78
2019-01-15T23:20:15.413Z,98009.14
2019-01-15T23:24:21.753Z,98005.16
2019-01-15T23:28:28.091Z,98002.94
2019-01-15T23:32:34.448Z,97998.98
2019-01-15T23:36:59.104Z,97999.81
2019-01-15T23:41:08.114Z,97997.77
2019-01-15T23:45:19.953Z,97990.48
2019-01-15T23:49:26.331Z,97980.17
2019-01-15T23:53:44.615Z,97983.31
2019-01-15T23:57:50.949Z,97990.63
